sensor_id;sensor_type;location;lat;lon;timestamp;P1;durP1;ratioP1;P2;durP2;ratioP2
22697;SDS011;11516;51.612;7.510;2023-02-15T00:00:14;29.53;;;20.03;;
22697;SDS011;11516;51.612;7.510;2023-02-15T00:02:41;27.90;;;19.63;;
22697;SDS011;11516;51.612;7.510;2023-02-15T00:05:06;26.33;;;19.30;;
22697;SDS011;11516;51.612;7.510;2023-02-15T00:07:32;28.40;;;19.70;;
22697;SDS011;11516;51.612;7.510;2023-02-15T00:09:58;28.07;;;19.70;;
22697;SDS011;11516;51.612;7.510;2023-02-15T00:12:23;28.98;;;19.58;;
22697;SDS011;11516;51.612;7.510;2023-02-15T00:14:49;29.00;;;19.03;;
22697;SDS011;11516;51.612;7.510;2023-02-15T00:17:14;30.48;;;20.25;;
22697;SDS011;11516;51.612;7.510;2023-02-15T00:19:40;28.27;;;19.80;;
22697;SDS011;11516;51.612;7.510;2023-02-15T00:22:06;31.50;;;20.75;;
22697;SDS011;11516;51.612;7.510;2023-02-15T00:24:32;28.50;;;20.30;;
22697;SDS011;11516;51.612;7.510;2023-02-15T00:26:57;31.47;;;21.10;;
22697;SDS011;11516;51.612;7.510;2023-02-15T00:29:23;33.40;;;22.15;;
22697;SDS011;11516;51.612;7.510;2023-02-15T00:31:49;33.15;;;22.77;;
22697;SDS011;11516;51.612;7.510;2023-02-15T00:34:16;32.03;;;21.60;;
22697;SDS011;11516;51.612;7.510;2023-02-15T00:36:49;30.73;;;21.67;;
22697;SDS011;11516;51.612;7.510;2023-02-15T00:39:15;34.28;;;22.55;;
22697;SDS011;11516;51.612;7.510;2023-02-15T00:41:42;38.85;;;25.33;;
22697;SDS011;11516;51.612;7.510;2023-02-15T00:44:07;37.47;;;24.53;;
22697;SDS011;11516;51.612;7.510;2023-02-15T00:46:33;39.88;;;26.13;;
22697;SDS011;11516;51.612;7.510;2023-02-15T00:48:59;40.72;;;25.85;;
22697;SDS011;11516;51.612;7.510;2023-02-15T00:51:25;40.13;;;25.83;;
22697;SDS011;11516;51.612;7.510;2023-02-15T00:53:51;37.90;;;25.50;;
22697;SDS011;11516;51.612;7.510;2023-02-15T00:56:16;37.03;;;24.92;;
22697;SDS011;11516;51.612;7.510;2023-02-15T00:58:42;36.47;;;24.93;;
22697;SDS011;11516;51.612;7.510;2023-02-15T01:01:09;36.85;;;25.17;;
22697;SDS011;11516;51.612;7.510;2023-02-15T01:03:37;37.33;;;24.67;;
22697;SDS011;11516;51.612;7.510;2023-02-15T01:06:03;34.22;;;23.60;;
22697;SDS011;11516;51.612;7.510;2023-02-15T01:08:29;37.40;;;24.40;;
22697;SDS011;11516;51.612;7.510;2023-02-15T01:10:55;36.60;;;23.80;;
22697;SDS011;11516;51.612;7.510;2023-02-15T01:13:21;36.58;;;24.13;;
22697;SDS011;11516;51.612;7.510;2023-02-15T01:15:52;34.77;;;24.07;;
22697;SDS011;11516;51.612;7.510;2023-02-15T01:18:19;35.97;;;24.02;;
22697;SDS011;11516;51.612;7.510;2023-02-15T01:20:44;34.67;;;22.00;;
22697;SDS011;11516;51.612;7.510;2023-02-15T01:23:10;35.08;;;23.27;;
22697;SDS011;11516;51.612;7.510;2023-02-15T01:25:36;33.23;;;22.93;;
22697;SDS011;11516;51.612;7.510;2023-02-15T01:28:01;36.35;;;23.65;;
22697;SDS011;11516;51.612;7.510;2023-02-15T01:30:27;36.83;;;23.58;;
22697;SDS011;11516;51.612;7.510;2023-02-15T01:32:53;33.80;;;22.73;;
22697;SDS011;11516;51.612;7.510;2023-02-15T01:35:18;33.03;;;22.15;;
22697;SDS011;11516;51.612;7.510;2023-02-15T01:37:44;32.40;;;22.73;;
22697;SDS011;11516;51.612;7.510;2023-02-15T01:40:13;35.22;;;23.15;;
22697;SDS011;11516;51.612;7.510;2023-02-15T01:42:42;34.90;;;23.00;;
22697;SDS011;11516;51.612;7.510;2023-02-15T01:45:21;32.55;;;21.70;;
22697;SDS011;11516;51.612;7.510;2023-02-15T01:47:58;32.47;;;22.13;;
22697;SDS011;11516;51.612;7.510;2023-02-15T01:50:30;31.27;;;21.85;;
22697;SDS011;11516;51.612;7.510;2023-02-15T01:55:44;33.75;;;21.70;;
22697;SDS011;11516;51.612;7.510;2023-02-15T01:58:15;32.00;;;21.52;;
22697;SDS011;11516;51.612;7.510;2023-02-15T02:00:41;34.05;;;21.80;;
22697;SDS011;11516;51.612;7.510;2023-02-15T02:03:08;31.02;;;20.77;;
22697;SDS011;11516;51.612;7.510;2023-02-15T02:05:34;32.17;;;21.73;;
22697;SDS011;11516;51.612;7.510;2023-02-15T02:08:00;29.90;;;20.83;;
22697;SDS011;11516;51.612;7.510;2023-02-15T02:10:27;29.05;;;20.17;;
22697;SDS011;11516;51.612;7.510;2023-02-15T02:12:54;32.40;;;20.85;;
22697;SDS011;11516;51.612;7.510;2023-02-15T02:15:36;29.33;;;20.23;;
22697;SDS011;11516;51.612;7.510;2023-02-15T02:21:15;26.92;;;19.25;;
22697;SDS011;11516;51.612;7.510;2023-02-15T02:24:15;26.92;;;18.42;;
22697;SDS011;11516;51.612;7.510;2023-02-15T02:27:29;28.25;;;19.08;;
22697;SDS011;11516;51.612;7.510;2023-02-15T02:35:44;23.90;;;17.57;;
22697;SDS011;11516;51.612;7.510;2023-02-15T02:41:32;24.67;;;18.17;;
22697;SDS011;11516;51.612;7.510;2023-02-15T02:47:55;25.58;;;18.48;;
22697;SDS011;11516;51.612;7.510;2023-02-15T02:50:21;25.45;;;17.55;;
22697;SDS011;11516;51.612;7.510;2023-02-15T02:52:51;25.77;;;18.92;;
22697;SDS011;11516;51.612;7.510;2023-02-15T02:57:54;25.33;;;18.08;;
22697;SDS011;11516;51.612;7.510;2023-02-15T03:00:35;25.30;;;18.60;;
22697;SDS011;11516;51.612;7.510;2023-02-15T03:03:09;25.50;;;17.05;;
22697;SDS011;11516;51.612;7.510;2023-02-15T03:06:00;25.15;;;18.27;;
22697;SDS011;11516;51.612;7.510;2023-02-15T03:08:31;26.13;;;18.42;;
22697;SDS011;11516;51.612;7.510;2023-02-15T03:11:00;24.27;;;18.13;;
22697;SDS011;11516;51.612;7.510;2023-02-15T03:13:28;24.77;;;18.00;;
22697;SDS011;11516;51.612;7.510;2023-02-15T03:15:53;25.65;;;18.00;;
22697;SDS011;11516;51.612;7.510;2023-02-15T03:18:43;24.67;;;18.30;;
22697;SDS011;11516;51.612;7.510;2023-02-15T03:21:17;30.90;;;19.67;;
22697;SDS011;11516;51.612;7.510;2023-02-15T03:23:48;37.17;;;19.07;;
22697;SDS011;11516;51.612;7.510;2023-02-15T03:26:19;45.10;;;20.73;;
22697;SDS011;11516;51.612;7.510;2023-02-15T03:28:46;38.90;;;19.48;;
22697;SDS011;11516;51.612;7.510;2023-02-15T03:31:15;47.40;;;20.27;;
22697;SDS011;11516;51.612;7.510;2023-02-15T03:33:52;40.97;;;20.38;;
22697;SDS011;11516;51.612;7.510;2023-02-15T03:36:22;37.65;;;19.13;;
22697;SDS011;11516;51.612;7.510;2023-02-15T03:41:36;27.60;;;17.02;;
22697;SDS011;11516;51.612;7.510;2023-02-15T03:44:06;26.75;;;18.23;;
22697;SDS011;11516;51.612;7.510;2023-02-15T03:46:43;27.23;;;18.33;;
22697;SDS011;11516;51.612;7.510;2023-02-15T03:49:15;24.48;;;17.08;;
22697;SDS011;11516;51.612;7.510;2023-02-15T03:52:01;22.80;;;16.65;;
22697;SDS011;11516;51.612;7.510;2023-02-15T03:54:30;29.08;;;18.77;;
22697;SDS011;11516;51.612;7.510;2023-02-15T03:57:09;25.25;;;18.05;;
22697;SDS011;11516;51.612;7.510;2023-02-15T04:00:16;28.00;;;17.55;;
22697;SDS011;11516;51.612;7.510;2023-02-15T04:03:07;28.73;;;18.00;;
22697;SDS011;11516;51.612;7.510;2023-02-15T04:05:41;25.33;;;17.50;;
22697;SDS011;11516;51.612;7.510;2023-02-15T04:08:08;26.65;;;18.17;;
22697;SDS011;11516;51.612;7.510;2023-02-15T04:10:34;25.67;;;16.92;;
22697;SDS011;11516;51.612;7.510;2023-02-15T04:13:20;25.03;;;17.80;;
22697;SDS011;11516;51.612;7.510;2023-02-15T04:15:54;26.05;;;17.92;;
22697;SDS011;11516;51.612;7.510;2023-02-15T04:18:29;25.48;;;18.42;;
22697;SDS011;11516;51.612;7.510;2023-02-15T04:21:24;25.67;;;17.73;;
22697;SDS011;11516;51.612;7.510;2023-02-15T04:24:10;24.52;;;17.73;;
22697;SDS011;11516;51.612;7.510;2023-02-15T04:26:55;25.65;;;18.02;;
22697;SDS011;11516;51.612;7.510;2023-02-15T04:29:21;26.80;;;18.42;;
22697;SDS011;11516;51.612;7.510;2023-02-15T04:31:49;29.05;;;19.00;;
22697;SDS011;11516;51.612;7.510;2023-02-15T04:34:15;29.48;;;18.30;;
22697;SDS011;11516;51.612;7.510;2023-02-15T04:36:41;27.67;;;19.17;;
22697;SDS011;11516;51.612;7.510;2023-02-15T04:39:07;28.50;;;19.65;;
22697;SDS011;11516;51.612;7.510;2023-02-15T04:41:32;25.67;;;18.87;;
22697;SDS011;11516;51.612;7.510;2023-02-15T04:43:58;29.10;;;20.45;;
22697;SDS011;11516;51.612;7.510;2023-02-15T04:46:25;33.78;;;20.65;;
22697;SDS011;11516;51.612;7.510;2023-02-15T04:48:51;37.88;;;21.30;;
22697;SDS011;11516;51.612;7.510;2023-02-15T04:51:17;29.92;;;20.38;;
22697;SDS011;11516;51.612;7.510;2023-02-15T04:53:43;28.95;;;20.40;;
22697;SDS011;11516;51.612;7.510;2023-02-15T04:56:08;30.30;;;20.70;;
22697;SDS011;11516;51.612;7.510;2023-02-15T04:58:34;28.42;;;20.60;;
22697;SDS011;11516;51.612;7.510;2023-02-15T05:01:00;29.27;;;20.40;;
22697;SDS011;11516;51.612;7.510;2023-02-15T05:03:26;28.80;;;20.30;;
22697;SDS011;11516;51.612;7.510;2023-02-15T05:05:51;27.48;;;20.42;;
22697;SDS011;11516;51.612;7.510;2023-02-15T05:08:17;30.20;;;21.67;;
22697;SDS011;11516;51.612;7.510;2023-02-15T05:10:42;28.27;;;20.60;;
22697;SDS011;11516;51.612;7.510;2023-02-15T05:13:08;29.63;;;21.73;;
22697;SDS011;11516;51.612;7.510;2023-02-15T05:15:33;31.50;;;21.05;;
22697;SDS011;11516;51.612;7.510;2023-02-15T05:17:59;28.90;;;20.87;;
22697;SDS011;11516;51.612;7.510;2023-02-15T05:20:26;28.20;;;21.20;;
22697;SDS011;11516;51.612;7.510;2023-02-15T05:22:55;27.55;;;22.02;;
22697;SDS011;11516;51.612;7.510;2023-02-15T05:25:20;28.77;;;20.83;;
22697;SDS011;11516;51.612;7.510;2023-02-15T05:28:04;27.47;;;20.80;;
22697;SDS011;11516;51.612;7.510;2023-02-15T05:30:48;30.20;;;21.88;;
22697;SDS011;11516;51.612;7.510;2023-02-15T05:33:15;29.23;;;21.63;;
22697;SDS011;11516;51.612;7.510;2023-02-15T05:35:41;28.97;;;22.37;;
22697;SDS011;11516;51.612;7.510;2023-02-15T05:38:07;31.90;;;22.50;;
22697;SDS011;11516;51.612;7.510;2023-02-15T05:40:33;29.95;;;21.48;;
22697;SDS011;11516;51.612;7.510;2023-02-15T05:42:58;32.85;;;23.38;;
22697;SDS011;11516;51.612;7.510;2023-02-15T05:45:24;29.87;;;22.03;;
22697;SDS011;11516;51.612;7.510;2023-02-15T05:47:50;31.60;;;22.33;;
22697;SDS011;11516;51.612;7.510;2023-02-15T05:50:16;28.87;;;21.60;;
22697;SDS011;11516;51.612;7.510;2023-02-15T05:52:41;30.40;;;22.60;;
22697;SDS011;11516;51.612;7.510;2023-02-15T05:55:07;31.60;;;21.67;;
22697;SDS011;11516;51.612;7.510;2023-02-15T05:57:33;28.88;;;20.95;;
22697;SDS011;11516;51.612;7.510;2023-02-15T06:00:00;28.83;;;20.48;;
22697;SDS011;11516;51.612;7.510;2023-02-15T06:02:25;28.45;;;20.00;;
22697;SDS011;11516;51.612;7.510;2023-02-15T06:04:51;29.10;;;21.38;;
22697;SDS011;11516;51.612;7.510;2023-02-15T06:07:16;30.87;;;20.80;;
22697;SDS011;11516;51.612;7.510;2023-02-15T06:09:42;27.95;;;20.25;;
22697;SDS011;11516;51.612;7.510;2023-02-15T06:12:08;28.90;;;20.37;;
22697;SDS011;11516;51.612;7.510;2023-02-15T06:14:33;29.50;;;20.10;;
22697;SDS011;11516;51.612;7.510;2023-02-15T06:16:58;28.77;;;20.48;;
22697;SDS011;11516;51.612;7.510;2023-02-15T06:19:24;30.30;;;20.73;;
22697;SDS011;11516;51.612;7.510;2023-02-15T06:21:50;28.65;;;20.92;;
22697;SDS011;11516;51.612;7.510;2023-02-15T06:24:15;27.67;;;19.67;;
22697;SDS011;11516;51.612;7.510;2023-02-15T06:26:40;30.55;;;22.40;;
22697;SDS011;11516;51.612;7.510;2023-02-15T06:29:06;27.77;;;21.67;;
22697;SDS011;11516;51.612;7.510;2023-02-15T06:31:32;30.20;;;21.52;;
22697;SDS011;11516;51.612;7.510;2023-02-15T06:33:57;29.17;;;21.53;;
22697;SDS011;11516;51.612;7.510;2023-02-15T06:36:26;29.87;;;21.57;;
22697;SDS011;11516;51.612;7.510;2023-02-15T06:38:55;29.05;;;22.00;;
22697;SDS011;11516;51.612;7.510;2023-02-15T06:41:21;32.25;;;22.38;;
22697;SDS011;11516;51.612;7.510;2023-02-15T06:43:47;31.73;;;23.20;;
22697;SDS011;11516;51.612;7.510;2023-02-15T06:46:13;31.98;;;24.00;;
22697;SDS011;11516;51.612;7.510;2023-02-15T06:48:38;34.93;;;24.87;;
22697;SDS011;11516;51.612;7.510;2023-02-15T06:51:04;31.35;;;23.80;;
22697;SDS011;11516;51.612;7.510;2023-02-15T06:53:29;36.10;;;26.03;;
22697;SDS011;11516;51.612;7.510;2023-02-15T06:56:02;33.67;;;24.23;;
22697;SDS011;11516;51.612;7.510;2023-02-15T06:58:33;32.60;;;24.23;;
22697;SDS011;11516;51.612;7.510;2023-02-15T07:01:02;35.95;;;25.85;;
22697;SDS011;11516;51.612;7.510;2023-02-15T07:03:29;32.17;;;24.17;;
22697;SDS011;11516;51.612;7.510;2023-02-15T07:05:55;36.00;;;24.67;;
22697;SDS011;11516;51.612;7.510;2023-02-15T07:08:22;33.20;;;25.80;;
22697;SDS011;11516;51.612;7.510;2023-02-15T07:10:49;35.13;;;25.65;;
22697;SDS011;11516;51.612;7.510;2023-02-15T07:13:15;35.38;;;25.15;;
22697;SDS011;11516;51.612;7.510;2023-02-15T07:15:40;31.92;;;24.77;;
22697;SDS011;11516;51.612;7.510;2023-02-15T07:18:06;33.33;;;24.60;;
22697;SDS011;11516;51.612;7.510;2023-02-15T07:20:31;33.38;;;24.73;;
22697;SDS011;11516;51.612;7.510;2023-02-15T07:23:00;30.95;;;23.27;;
22697;SDS011;11516;51.612;7.510;2023-02-15T07:25:26;31.13;;;23.88;;
22697;SDS011;11516;51.612;7.510;2023-02-15T07:27:58;31.90;;;23.70;;
22697;SDS011;11516;51.612;7.510;2023-02-15T07:30:24;32.77;;;23.70;;
22697;SDS011;11516;51.612;7.510;2023-02-15T07:32:50;34.30;;;24.15;;
22697;SDS011;11516;51.612;7.510;2023-02-15T07:35:34;34.47;;;24.80;;
22697;SDS011;11516;51.612;7.510;2023-02-15T07:38:00;33.40;;;23.33;;
22697;SDS011;11516;51.612;7.510;2023-02-15T07:40:26;31.92;;;23.27;;
22697;SDS011;11516;51.612;7.510;2023-02-15T07:42:51;32.57;;;24.67;;
22697;SDS011;11516;51.612;7.510;2023-02-15T07:45:18;31.27;;;23.35;;
22697;SDS011;11516;51.612;7.510;2023-02-15T07:47:43;30.33;;;23.67;;
22697;SDS011;11516;51.612;7.510;2023-02-15T07:50:09;34.55;;;24.20;;
22697;SDS011;11516;51.612;7.510;2023-02-15T07:52:34;31.20;;;24.00;;
22697;SDS011;11516;51.612;7.510;2023-02-15T07:55:00;31.88;;;24.02;;
22697;SDS011;11516;51.612;7.510;2023-02-15T07:57:25;32.60;;;24.10;;
22697;SDS011;11516;51.612;7.510;2023-02-15T07:59:51;34.37;;;25.30;;
22697;SDS011;11516;51.612;7.510;2023-02-15T08:02:16;33.78;;;24.58;;
22697;SDS011;11516;51.612;7.510;2023-02-15T08:04:42;32.40;;;24.33;;
22697;SDS011;11516;51.612;7.510;2023-02-15T08:07:07;34.30;;;25.00;;
22697;SDS011;11516;51.612;7.510;2023-02-15T08:09:33;32.97;;;24.60;;
22697;SDS011;11516;51.612;7.510;2023-02-15T08:11:58;32.80;;;24.63;;
22697;SDS011;11516;51.612;7.510;2023-02-15T08:14:24;34.35;;;24.48;;
22697;SDS011;11516;51.612;7.510;2023-02-15T08:19:25;37.00;;;24.70;;
22697;SDS011;11516;51.612;7.510;2023-02-15T08:21:53;30.70;;;23.67;;
22697;SDS011;11516;51.612;7.510;2023-02-15T08:24:24;34.10;;;24.50;;
22697;SDS011;11516;51.612;7.510;2023-02-15T08:26:53;33.37;;;24.27;;
22697;SDS011;11516;51.612;7.510;2023-02-15T08:29:19;30.30;;;22.83;;
22697;SDS011;11516;51.612;7.510;2023-02-15T08:31:47;36.08;;;23.92;;
22697;SDS011;11516;51.612;7.510;2023-02-15T08:34:14;32.95;;;23.13;;
22697;SDS011;11516;51.612;7.510;2023-02-15T08:36:42;32.00;;;23.77;;
22697;SDS011;11516;51.612;7.510;2023-02-15T08:39:09;34.72;;;23.27;;
22697;SDS011;11516;51.612;7.510;2023-02-15T08:41:36;32.40;;;22.77;;
22697;SDS011;11516;51.612;7.510;2023-02-15T08:44:04;32.58;;;23.95;;
22697;SDS011;11516;51.612;7.510;2023-02-15T08:46:35;34.27;;;23.60;;
22697;SDS011;11516;51.612;7.510;2023-02-15T08:49:02;32.72;;;23.15;;
22697;SDS011;11516;51.612;7.510;2023-02-15T08:51:29;34.92;;;23.67;;
22697;SDS011;11516;51.612;7.510;2023-02-15T08:53:57;30.73;;;23.30;;
22697;SDS011;11516;51.612;7.510;2023-02-15T08:56:25;34.80;;;24.42;;
22697;SDS011;11516;51.612;7.510;2023-02-15T08:58:53;31.88;;;22.70;;
22697;SDS011;11516;51.612;7.510;2023-02-15T09:01:20;30.38;;;21.13;;
22697;SDS011;11516;51.612;7.510;2023-02-15T09:03:54;34.63;;;23.60;;
22697;SDS011;11516;51.612;7.510;2023-02-15T09:06:21;31.85;;;23.13;;
22697;SDS011;11516;51.612;7.510;2023-02-15T09:08:51;33.22;;;23.38;;
22697;SDS011;11516;51.612;7.510;2023-02-15T09:11:19;32.80;;;22.20;;
22697;SDS011;11516;51.612;7.510;2023-02-15T09:13:59;34.77;;;23.27;;
22697;SDS011;11516;51.612;7.510;2023-02-15T09:16:27;30.50;;;21.75;;
22697;SDS011;11516;51.612;7.510;2023-02-15T09:18:54;31.88;;;22.65;;
22697;SDS011;11516;51.612;7.510;2023-02-15T09:21:23;32.60;;;22.98;;
22697;SDS011;11516;51.612;7.510;2023-02-15T09:23:51;29.55;;;21.02;;
22697;SDS011;11516;51.612;7.510;2023-02-15T09:26:20;32.58;;;22.52;;
22697;SDS011;11516;51.612;7.510;2023-02-15T09:28:47;35.10;;;22.70;;
22697;SDS011;11516;51.612;7.510;2023-02-15T09:31:17;33.17;;;22.55;;
22697;SDS011;11516;51.612;7.510;2023-02-15T09:33:48;30.77;;;23.00;;
22697;SDS011;11516;51.612;7.510;2023-02-15T09:36:22;32.72;;;22.65;;
22697;SDS011;11516;51.612;7.510;2023-02-15T09:39:00;31.08;;;20.98;;
22697;SDS011;11516;51.612;7.510;2023-02-15T09:44:35;32.30;;;23.13;;
22697;SDS011;11516;51.612;7.510;2023-02-15T09:50:27;30.85;;;20.73;;
22697;SDS011;11516;51.612;7.510;2023-02-15T10:04:12;29.37;;;21.23;;
22697;SDS011;11516;51.612;7.510;2023-02-15T10:13:23;31.13;;;21.43;;
22697;SDS011;11516;51.612;7.510;2023-02-15T10:18:43;32.90;;;20.77;;
22697;SDS011;11516;51.612;7.510;2023-02-15T10:21:22;31.13;;;20.52;;
22697;SDS011;11516;51.612;7.510;2023-02-15T10:24:03;29.08;;;20.13;;
22697;SDS011;11516;51.612;7.510;2023-02-15T10:26:45;32.92;;;21.05;;
22697;SDS011;11516;51.612;7.510;2023-02-15T10:29:21;27.00;;;19.83;;
22697;SDS011;11516;51.612;7.510;2023-02-15T10:34:50;36.40;;;22.73;;
22697;SDS011;11516;51.612;7.510;2023-02-15T10:40:44;36.70;;;22.45;;
22697;SDS011;11516;51.612;7.510;2023-02-15T10:43:21;33.67;;;22.57;;
22697;SDS011;11516;51.612;7.510;2023-02-15T10:49:05;31.85;;;21.65;;
22697;SDS011;11516;51.612;7.510;2023-02-15T10:52:05;30.53;;;21.70;;
22697;SDS011;11516;51.612;7.510;2023-02-15T10:57:26;33.20;;;23.38;;
22697;SDS011;11516;51.612;7.510;2023-02-15T11:05:52;36.97;;;22.58;;
22697;SDS011;11516;51.612;7.510;2023-02-15T11:08:22;35.50;;;23.63;;
22697;SDS011;11516;51.612;7.510;2023-02-15T11:10:54;33.17;;;23.75;;
22697;SDS011;11516;51.612;7.510;2023-02-15T11:13:27;38.33;;;23.60;;
22697;SDS011;11516;51.612;7.510;2023-02-15T11:16:05;39.95;;;24.90;;
22697;SDS011;11516;51.612;7.510;2023-02-15T11:19:13;38.70;;;23.38;;
22697;SDS011;11516;51.612;7.510;2023-02-15T11:21:39;42.65;;;21.83;;
22697;SDS011;11516;51.612;7.510;2023-02-15T11:24:12;39.60;;;21.60;;
22697;SDS011;11516;51.612;7.510;2023-02-15T11:26:43;38.92;;;21.85;;
22697;SDS011;11516;51.612;7.510;2023-02-15T11:31:56;33.33;;;21.27;;
22697;SDS011;11516;51.612;7.510;2023-02-15T11:37:01;30.33;;;18.23;;
22697;SDS011;11516;51.612;7.510;2023-02-15T11:39:32;32.15;;;17.58;;
22697;SDS011;11516;51.612;7.510;2023-02-15T11:42:00;27.27;;;16.63;;
22697;SDS011;11516;51.612;7.510;2023-02-15T11:44:39;28.60;;;16.70;;
22697;SDS011;11516;51.612;7.510;2023-02-15T11:47:12;31.50;;;16.17;;
22697;SDS011;11516;51.612;7.510;2023-02-15T11:49:38;26.27;;;15.80;;
22697;SDS011;11516;51.612;7.510;2023-02-15T11:52:10;26.55;;;14.80;;
22697;SDS011;11516;51.612;7.510;2023-02-15T11:54:41;22.88;;;14.07;;
22697;SDS011;11516;51.612;7.510;2023-02-15T11:57:14;21.58;;;13.63;;
22697;SDS011;11516;51.612;7.510;2023-02-15T12:02:39;21.20;;;12.95;;
22697;SDS011;11516;51.612;7.510;2023-02-15T12:05:13;20.98;;;13.38;;
22697;SDS011;11516;51.612;7.510;2023-02-15T12:07:45;19.17;;;12.30;;
22697;SDS011;11516;51.612;7.510;2023-02-15T12:12:49;18.98;;;11.65;;
22697;SDS011;11516;51.612;7.510;2023-02-15T12:15:37;16.33;;;10.68;;
22697;SDS011;11516;51.612;7.510;2023-02-15T12:18:15;17.40;;;10.70;;
22697;SDS011;11516;51.612;7.510;2023-02-15T12:20:42;17.35;;;10.35;;
22697;SDS011;11516;51.612;7.510;2023-02-15T12:23:12;16.20;;;10.87;;
22697;SDS011;11516;51.612;7.510;2023-02-15T12:25:42;20.63;;;10.88;;
22697;SDS011;11516;51.612;7.510;2023-02-15T12:31:03;15.30;;;10.00;;
22697;SDS011;11516;51.612;7.510;2023-02-15T12:33:35;19.07;;;10.40;;
22697;SDS011;11516;51.612;7.510;2023-02-15T12:36:11;16.50;;;9.98;;
22697;SDS011;11516;51.612;7.510;2023-02-15T12:38:42;15.60;;;10.17;;
22697;SDS011;11516;51.612;7.510;2023-02-15T12:41:21;17.77;;;9.83;;
22697;SDS011;11516;51.612;7.510;2023-02-15T12:44:02;15.05;;;9.63;;
22697;SDS011;11516;51.612;7.510;2023-02-15T12:46:28;15.73;;;9.90;;
22697;SDS011;11516;51.612;7.510;2023-02-15T12:51:51;16.42;;;10.23;;
22697;SDS011;11516;51.612;7.510;2023-02-15T12:57:14;16.77;;;9.35;;
22697;SDS011;11516;51.612;7.510;2023-02-15T12:59:56;17.73;;;10.40;;
22697;SDS011;11516;51.612;7.510;2023-02-15T13:02:29;23.58;;;10.60;;
22697;SDS011;11516;51.612;7.510;2023-02-15T13:08:28;19.38;;;9.20;;
22697;SDS011;11516;51.612;7.510;2023-02-15T13:10:57;13.35;;;8.70;;
22697;SDS011;11516;51.612;7.510;2023-02-15T13:13:34;16.77;;;9.07;;
22697;SDS011;11516;51.612;7.510;2023-02-15T13:16:09;15.98;;;9.35;;
22697;SDS011;11516;51.612;7.510;2023-02-15T13:18:38;16.17;;;9.05;;
22697;SDS011;11516;51.612;7.510;2023-02-15T13:23:46;13.48;;;8.95;;
22697;SDS011;11516;51.612;7.510;2023-02-15T13:26:15;15.63;;;8.88;;
22697;SDS011;11516;51.612;7.510;2023-02-15T13:28:46;19.90;;;10.32;;
22697;SDS011;11516;51.612;7.510;2023-02-15T13:31:15;16.10;;;9.43;;
22697;SDS011;11516;51.612;7.510;2023-02-15T13:33:46;19.45;;;9.98;;
22697;SDS011;11516;51.612;7.510;2023-02-15T13:39:20;15.75;;;9.40;;
22697;SDS011;11516;51.612;7.510;2023-02-15T13:47:24;14.32;;;9.23;;
22697;SDS011;11516;51.612;7.510;2023-02-15T14:01:00;16.42;;;9.68;;
22697;SDS011;11516;51.612;7.510;2023-02-15T14:14:34;15.80;;;8.82;;
22697;SDS011;11516;51.612;7.510;2023-02-15T14:20:05;13.93;;;9.10;;
22697;SDS011;11516;51.612;7.510;2023-02-15T14:28:11;16.10;;;9.40;;
22697;SDS011;11516;51.612;7.510;2023-02-15T14:30:45;18.85;;;9.35;;
22697;SDS011;11516;51.612;7.510;2023-02-15T14:35:40;14.20;;;8.77;;
22697;SDS011;11516;51.612;7.510;2023-02-15T14:38:13;14.75;;;9.07;;
22697;SDS011;11516;51.612;7.510;2023-02-15T14:49:42;13.40;;;7.50;;
22697;SDS011;11516;51.612;7.510;2023-02-15T14:52:11;13.00;;;8.07;;
22697;SDS011;11516;51.612;7.510;2023-02-15T14:59:37;17.80;;;8.30;;
22697;SDS011;11516;51.612;7.510;2023-02-15T15:03:08;13.68;;;7.40;;
22697;SDS011;11516;51.612;7.510;2023-02-15T15:05:18;16.75;;;8.30;;
22697;SDS011;11516;51.612;7.510;2023-02-15T15:07:53;15.63;;;7.90;;
22697;SDS011;11516;51.612;7.510;2023-02-15T15:12:48;13.83;;;8.17;;
22697;SDS011;11516;51.612;7.510;2023-02-15T15:15:32;12.77;;;8.15;;
22697;SDS011;11516;51.612;7.510;2023-02-15T15:18:09;14.38;;;8.57;;
22697;SDS011;11516;51.612;7.510;2023-02-15T15:20:54;15.50;;;8.93;;
22697;SDS011;11516;51.612;7.510;2023-02-15T15:31:13;20.48;;;9.43;;
22697;SDS011;11516;51.612;7.510;2023-02-15T15:34:15;18.23;;;9.52;;
22697;SDS011;11516;51.612;7.510;2023-02-15T15:37:10;19.63;;;9.63;;
22697;SDS011;11516;51.612;7.510;2023-02-15T15:40:01;19.30;;;9.85;;
22697;SDS011;11516;51.612;7.510;2023-02-15T15:43:19;16.85;;;9.70;;
22697;SDS011;11516;51.612;7.510;2023-02-15T15:46:06;22.50;;;10.32;;
22697;SDS011;11516;51.612;7.510;2023-02-15T15:48:41;22.25;;;10.10;;
22697;SDS011;11516;51.612;7.510;2023-02-15T15:51:11;18.23;;;10.17;;
22697;SDS011;11516;51.612;7.510;2023-02-15T15:53:45;22.98;;;10.73;;
22697;SDS011;11516;51.612;7.510;2023-02-15T15:56:17;25.83;;;10.95;;
22697;SDS011;11516;51.612;7.510;2023-02-15T15:58:52;27.05;;;11.13;;
22697;SDS011;11516;51.612;7.510;2023-02-15T16:01:29;26.17;;;10.98;;
22697;SDS011;11516;51.612;7.510;2023-02-15T16:03:59;22.98;;;10.10;;
22697;SDS011;11516;51.612;7.510;2023-02-15T16:06:26;27.23;;;11.32;;
22697;SDS011;11516;51.612;7.510;2023-02-15T16:08:52;29.67;;;11.60;;
22697;SDS011;11516;51.612;7.510;2023-02-15T16:11:19;29.27;;;11.30;;
22697;SDS011;11516;51.612;7.510;2023-02-15T16:13:47;27.38;;;10.98;;
22697;SDS011;11516;51.612;7.510;2023-02-15T16:16:13;27.97;;;11.47;;
22697;SDS011;11516;51.612;7.510;2023-02-15T16:18:46;38.67;;;12.73;;
22697;SDS011;11516;51.612;7.510;2023-02-15T16:21:17;33.10;;;11.20;;
22697;SDS011;11516;51.612;7.510;2023-02-15T16:26:48;41.67;;;13.65;;
22697;SDS011;11516;51.612;7.510;2023-02-15T16:29:25;43.53;;;13.82;;
22697;SDS011;11516;51.612;7.510;2023-02-15T16:31:57;39.53;;;14.80;;
22697;SDS011;11516;51.612;7.510;2023-02-15T16:34:27;43.33;;;14.20;;
22697;SDS011;11516;51.612;7.510;2023-02-15T16:37:11;33.92;;;13.57;;
22697;SDS011;11516;51.612;7.510;2023-02-15T16:39:45;38.90;;;13.25;;
22697;SDS011;11516;51.612;7.510;2023-02-15T16:42:12;38.17;;;14.18;;
22697;SDS011;11516;51.612;7.510;2023-02-15T16:44:41;29.13;;;12.20;;
22697;SDS011;11516;51.612;7.510;2023-02-15T16:47:25;33.30;;;12.55;;
22697;SDS011;11516;51.612;7.510;2023-02-15T16:49:57;26.92;;;11.55;;
22697;SDS011;11516;51.612;7.510;2023-02-15T16:52:26;38.28;;;13.68;;
22697;SDS011;11516;51.612;7.510;2023-02-15T16:54:56;29.25;;;12.50;;
22697;SDS011;11516;51.612;7.510;2023-02-15T16:57:25;34.20;;;12.75;;
22697;SDS011;11516;51.612;7.510;2023-02-15T16:59:56;30.60;;;13.02;;
22697;SDS011;11516;51.612;7.510;2023-02-15T17:02:27;27.80;;;14.48;;
22697;SDS011;11516;51.612;7.510;2023-02-15T17:07:31;27.33;;;13.23;;
22697;SDS011;11516;51.612;7.510;2023-02-15T17:09:58;27.48;;;12.60;;
22697;SDS011;11516;51.612;7.510;2023-02-15T17:15:39;29.48;;;13.27;;
22697;SDS011;11516;51.612;7.510;2023-02-15T17:18:16;40.53;;;13.60;;
22697;SDS011;11516;51.612;7.510;2023-02-15T17:20:47;39.70;;;15.93;;
22697;SDS011;11516;51.612;7.510;2023-02-15T17:26:20;29.92;;;13.55;;
22697;SDS011;11516;51.612;7.510;2023-02-15T17:28:52;27.55;;;14.23;;
22697;SDS011;11516;51.612;7.510;2023-02-15T17:31:24;28.90;;;13.57;;
22697;SDS011;11516;51.612;7.510;2023-02-15T17:33:53;24.88;;;13.43;;
22697;SDS011;11516;51.612;7.510;2023-02-15T17:36:21;25.58;;;14.30;;
22697;SDS011;11516;51.612;7.510;2023-02-15T17:39:33;27.05;;;13.40;;